createdAt,value
2019-01-23T00:03:37.498Z,68.12
2019-01-23T00:08:40.213Z,68.28
2019-01-23T00:13:42.908Z,68.36
2019-01-23T00:18:45.601Z,68.50
2019-01-23T00:24:07.843Z,68.66
2019-01-23T00:29:10.544Z,68.51
2019-01-23T00:34:13.297Z,68.84
2019-01-23T00:39:16.042Z,68.82
2019-01-23T00:44:38.235Z,68.51
2019-01-23T00:50:00.467Z,68.46
2019-01-23T00:55:04.528Z,68.83
2019-01-23T01:00:14.186Z,69.17
2019-01-23T01:05:36.402Z,69.07
2019-01-23T01:10:58.586Z,69.14
2019-01-23T01:16:20.754Z,69.67
2019-01-23T01:21:42.930Z,70.22
2019-01-23T01:27:05.126Z,70.23
2019-01-23T01:32:27.284Z,70.07
2019-01-23T01:37:29.954Z,69.95
2019-01-23T01:42:32.636Z,69.82
2019-01-23T01:47:35.330Z,69.96
2019-01-23T01:52:39.592Z,70.49
2019-01-23T01:57:42.315Z,70.90
2019-01-23T02:02:45.002Z,71.07
2019-01-23T02:08:00.246Z,71.00
2019-01-23T02:13:02.988Z,70.53
2019-01-23T02:18:25.174Z,70.50
2019-01-23T02:23:27.874Z,70.11
2019-01-23T02:28:50.076Z,70.00
2019-01-23T02:34:12.269Z,69.87
2019-01-23T02:39:34.496Z,69.87
2019-01-23T02:44:56.678Z,70.06
2019-01-23T02:50:18.870Z,70.42
2019-01-23T02:55:22.788Z,70.39
2019-01-23T03:00:25.484Z,70.20
2019-01-23T03:05:48.324Z,69.80
2019-01-23T03:11:10.606Z,69.85
2019-01-23T03:16:32.797Z,70.25
2019-01-23T03:21:54.970Z,70.39
2019-01-23T03:27:17.162Z,70.64
2019-01-23T03:32:39.344Z,71.04
2019-01-23T03:38:01.546Z,71.23
2019-01-23T03:43:23.723Z,71.17
2019-01-23T03:48:26.397Z,71.03
2019-01-23T03:53:48.591Z,71.18
2019-01-23T03:59:10.826Z,71.09
2019-01-23T04:04:33.028Z,70.96
2019-01-23T04:09:35.717Z,70.90
2019-01-23T04:14:57.889Z,70.99
2019-01-23T04:20:21.481Z,70.83
2019-01-23T04:25:24.153Z,70.90
2019-01-23T04:30:46.331Z,70.80
2019-01-23T04:36:08.525Z,70.46
2019-01-23T04:41:30.708Z,70.77
2019-01-23T04:46:53.022Z,71.69
2019-01-23T04:52:34.802Z,71.89
2019-01-23T04:57:56.978Z,71.83
2019-01-23T05:03:19.173Z,71.70
2019-01-23T05:08:34.865Z,71.54
2019-01-23T05:13:37.542Z,71.85
2019-01-23T05:18:59.717Z,72.04
2019-01-23T05:24:21.911Z,72.04
2019-01-23T05:29:44.092Z,71.91
2019-01-23T05:34:46.794Z,72.61
2019-01-23T05:40:09.026Z,73.11
2019-01-23T05:45:12.307Z,73.25
2019-01-23T05:50:15.924Z,73.04
2019-01-23T05:55:18.611Z,72.87
2019-01-23T06:05:38.077Z,73.03
2019-01-23T06:11:00.250Z,72.76
2019-01-23T06:16:22.463Z,72.77
2019-01-23T06:21:44.662Z,72.77
2019-01-23T06:26:47.363Z,73.11
2019-01-23T06:32:09.588Z,72.99
2019-01-23T06:37:40.993Z,72.78
2019-01-23T06:43:03.301Z,72.48
2019-01-23T06:48:06.105Z,72.34
2019-01-23T06:53:28.334Z,72.42
2019-01-23T06:58:50.535Z,72.25
2019-01-23T07:04:12.891Z,72.87
2019-01-23T07:09:28.142Z,72.75
2019-01-23T07:14:50.335Z,72.85
2019-01-23T07:20:33.790Z,72.81
2019-01-23T07:25:55.977Z,72.63
2019-01-23T07:31:18.164Z,72.64
2019-01-23T07:36:40.355Z,73.14
2019-01-23T07:41:43.049Z,73.59
2019-01-23T07:47:05.239Z,73.45
2019-01-23T07:52:07.941Z,73.23
2019-01-23T07:57:30.133Z,73.22
2019-01-23T08:02:52.316Z,73.01
2019-01-23T08:08:07.421Z,73.14
2019-01-23T08:13:10.163Z,72.38
2019-01-23T08:18:12.904Z,72.94
2019-01-23T08:23:15.599Z,72.67
2019-01-23T08:28:18.282Z,72.85
2019-01-23T08:33:40.810Z,72.93
2019-01-23T08:39:24.383Z,72.92
2019-01-23T08:44:46.570Z,73.21
2019-01-23T08:50:32.426Z,72.78
2019-01-23T08:55:54.635Z,72.82
2019-01-23T09:00:57.324Z,72.58
2019-01-23T09:06:00.020Z,72.27
2019-01-23T09:11:22.259Z,72.34
2019-01-23T09:16:44.671Z,71.83
2019-01-23T09:22:06.884Z,71.68
2019-01-23T09:27:29.113Z,71.23
2019-01-23T09:33:30.274Z,71.39
2019-01-23T09:39:31.480Z,71.24
2019-01-23T09:45:32.657Z,71.67
2019-01-23T09:51:36.615Z,70.86
2019-01-23T09:56:58.803Z,70.51
2019-01-23T10:02:20.992Z,70.34
2019-01-23T10:07:36.533Z,70.44
2019-01-23T10:12:58.709Z,69.58
2019-01-23T10:18:20.902Z,69.75
2019-01-23T10:23:43.089Z,69.91
2019-01-23T10:29:05.293Z,68.67
2019-01-23T10:34:27.481Z,67.57
2019-01-23T10:39:49.667Z,67.31
2019-01-23T10:45:12.127Z,66.73
2019-01-23T10:50:34.304Z,66.64
2019-01-23T10:55:36.996Z,66.98
2019-01-23T11:00:59.187Z,67.28
2019-01-23T11:06:14.218Z,66.82
2019-01-23T11:11:36.400Z,65.91
2019-01-23T11:16:58.643Z,65.74
2019-01-23T11:22:01.328Z,65.60
2019-01-23T11:27:23.698Z,65.45
2019-01-23T11:32:45.904Z,64.77
2019-01-23T11:38:08.081Z,64.81
2019-01-23T11:43:30.341Z,64.61
2019-01-23T11:48:52.509Z,63.50
2019-01-23T11:53:55.600Z,63.12
2019-01-23T11:59:18.026Z,63.04
2019-01-23T12:04:40.229Z,62.75
2019-01-23T12:09:55.456Z,63.19
2019-01-23T12:15:20.506Z,62.46
2019-01-23T12:20:42.764Z,62.46
2019-01-23T12:26:04.938Z,62.37
2019-01-23T12:31:07.603Z,61.82
2019-01-23T12:41:17.753Z,62.79
2019-01-23T12:46:39.941Z,62.41
2019-01-23T12:52:02.607Z,62.43
2019-01-23T12:57:25.243Z,62.43
2019-01-23T13:02:47.422Z,62.48
2019-01-23T13:08:03.055Z,62.22
2019-01-23T13:13:25.242Z,61.83
2019-01-23T13:18:47.505Z,62.35
2019-01-23T13:24:09.689Z,62.73
2019-01-23T13:29:31.878Z,62.66
2019-01-23T13:34:54.057Z,63.22
2019-01-23T13:40:37.302Z,63.58
2019-01-23T13:45:59.478Z,64.29
2019-01-23T13:51:21.668Z,64.09
2019-01-23T13:56:43.846Z,63.66
2019-01-23T14:02:06.151Z,64.29
2019-01-23T14:07:22.026Z,64.95
2019-01-23T14:12:24.693Z,64.97
2019-01-23T14:17:27.365Z,64.91
2019-01-23T14:22:49.551Z,65.10
2019-01-23T14:28:11.751Z,65.40
2019-01-23T14:33:33.936Z,65.52
2019-01-23T14:38:56.107Z,66.16
2019-01-23T14:43:58.771Z,66.04
2019-01-23T14:49:01.484Z,66.88
2019-01-23T14:54:23.652Z,67.36
2019-01-23T14:59:45.835Z,67.32
2019-01-23T15:05:08.250Z,68.13
2019-01-23T15:10:18.034Z,68.18
2019-01-23T15:15:20.722Z,68.59
2019-01-23T15:20:43.448Z,68.43
2019-01-23T15:26:05.632Z,68.60
2019-01-23T15:31:27.818Z,68.52
2019-01-23T15:36:49.989Z,68.52
2019-01-23T15:42:12.175Z,69.00
2019-01-23T15:47:34.369Z,69.00
2019-01-23T15:52:56.533Z,69.02
2019-01-23T15:58:18.725Z,68.83
2019-01-23T16:03:40.898Z,69.04
2019-01-23T16:08:56.787Z,69.14
2019-01-23T16:14:19.045Z,69.29
2019-01-23T16:19:23.039Z,69.17
2019-01-23T16:24:26.297Z,69.07
2019-01-23T16:29:28.967Z,68.53
2019-01-23T16:34:31.631Z,68.64
2019-01-23T16:39:34.422Z,68.18
2019-01-23T16:44:56.619Z,67.75
2019-01-23T16:50:19.791Z,68.08
2019-01-23T16:55:41.976Z,67.73
2019-01-23T17:00:44.751Z,68.01
2019-01-23T17:11:57.294Z,67.75
2019-01-23T17:16:59.976Z,68.58
2019-01-23T17:22:02.635Z,68.51
2019-01-23T17:27:24.826Z,68.75
2019-01-23T17:32:47.060Z,68.93
2019-01-23T17:38:09.248Z,69.13
2019-01-23T17:49:02.113Z,68.68
2019-01-23T17:54:24.298Z,69.10
2019-01-23T17:59:46.490Z,69.36
2019-01-23T18:05:08.837Z,69.74
2019-01-23T18:10:24.648Z,69.42
2019-01-23T18:15:46.988Z,68.85
2019-01-23T18:21:09.165Z,68.45
2019-01-23T18:26:11.925Z,68.18
2019-01-23T18:31:38.581Z,67.91
2019-01-23T18:37:39.783Z,67.80
2019-01-23T18:43:41.216Z,68.00
2019-01-23T18:49:42.458Z,67.63
2019-01-23T18:55:07.876Z,67.45
2019-01-23T19:00:30.165Z,67.81
2019-01-23T19:05:53.680Z,67.94
2019-01-23T19:11:16.897Z,67.76
2019-01-23T19:16:39.187Z,67.94
2019-01-23T19:22:01.379Z,68.09
2019-01-23T19:27:23.579Z,67.68
2019-01-23T19:32:45.773Z,66.82
2019-01-23T19:38:07.950Z,66.76
2019-01-23T19:43:30.151Z,66.73
2019-01-23T19:48:52.369Z,66.52
2019-01-23T19:54:14.580Z,66.52
2019-01-23T19:59:36.761Z,66.54
2019-01-23T20:04:58.959Z,66.09
2019-01-23T20:10:15.275Z,66.81
2019-01-23T20:15:37.865Z,66.56
2019-01-23T20:21:01.525Z,66.20
2019-01-23T20:26:23.705Z,66.20
2019-01-23T20:31:26.391Z,66.39
2019-01-23T20:36:48.575Z,66.17
2019-01-23T20:41:51.270Z,65.96
2019-01-23T20:47:13.444Z,66.12
2019-01-23T20:52:35.641Z,66.08
2019-01-23T20:57:38.320Z,65.98
2019-01-23T21:03:00.502Z,66.38
2019-01-23T21:08:16.336Z,66.78
2019-01-23T21:13:38.495Z,66.37
2019-01-23T21:18:41.196Z,66.20
2019-01-23T21:24:03.540Z,66.70
2019-01-23T21:29:25.720Z,65.97
2019-01-23T21:34:49.275Z,65.42
2019-01-23T21:39:52.657Z,65.41
2019-01-23T21:44:55.389Z,65.07
2019-01-23T21:49:58.087Z,64.95
2019-01-23T21:55:00.790Z,65.25
2019-01-23T22:00:43.554Z,65.16
2019-01-23T22:06:05.738Z,64.66
2019-01-23T22:11:27.921Z,64.37
2019-01-23T22:16:30.611Z,64.19
2019-01-23T22:21:33.276Z,64.33
2019-01-23T22:26:35.957Z,64.72
2019-01-23T22:31:58.144Z,65.15
2019-01-23T22:37:20.331Z,65.47
2019-01-23T22:42:42.525Z,65.37
2019-01-23T22:47:45.336Z,65.09
2019-01-23T22:53:07.512Z,64.89
2019-01-23T22:58:29.694Z,64.68
2019-01-23T23:03:51.892Z,65.29
2019-01-23T23:09:08.440Z,65.96
2019-01-23T23:14:11.141Z,66.31
2019-01-23T23:19:13.794Z,66.92
2019-01-23T23:24:35.977Z,67.08
2019-01-23T23:29:58.175Z,67.59
2019-01-23T23:35:20.368Z,67.97
2019-01-23T23:40:42.691Z,68.14
2019-01-23T23:46:04.865Z,68.06
2019-01-23T23:51:27.047Z,68.52
2019-01-23T23:56:49.221Z,68.73
